Nearby METAR Reports

 

KPBH - Phillips, Wisconsin, USA
Distance from station: SE 13mi, 21km
Updated: 04/20/2019 3:55pm
Clear
Clear
 Wind from SSW
Wind: SSW 12 mph , 19 km/h
Temperature: 66°F , 19°C
Dew Point: 34°F , 1°C
Humidity: 30%
Barometer: 29.75 inHg , 1007.5 hPa
Clouds: Clear
Visibility: 10 miles , 16 km
2019/04/20 20:55 KPBH 202055Z AUTO 20010KT 10SM CLR 19/01 A2975 RMK AO2 T01910010
KRCX - Ladysmith/Rusk, Wisconsin, USA
Distance from station: SW 29mi, 46km
Updated: 04/20/2019 3:55pm
Clear
Clear
 Wind from SSE
Wind: SSE 12 mph , 19 km/h, Gust: 20 mph , 31 km/h
Temperature: 68°F , 20°C
Dew Point: 34°F , 1°C
Humidity: 28%
Barometer: 29.77 inHg , 1008.1 hPa
Clouds: Clear
Visibility: 10 miles , 16 km
2019/04/20 20:55 KRCX 202055Z AUTO 16010G17KT 10SM CLR 20/01 A2977 RMK AO2 T02010006
 
KD25 - Manitowish Water, Wisconsin, USA
Distance from station: ENE 41mi, 66km
Updated: 04/20/2019 3:55pm
Clear
Clear
 Wind from S
Wind: S 10 mph , 17 km/h
Temperature: 66°F , 19°C
Dew Point: 28°F , -2°C
Humidity: 24%
Barometer: 29.75 inHg , 1007.5 hPa
Clouds: Clear
Visibility: 10 miles , 16 km
2019/04/20 20:55 KD25 202055Z AUTO 19009KT 10SM CLR 19/M02 A2975 RMK AO2 T01901021
KHYR - Hayward, Wisconsin, USA
Distance from station: WNW 42mi, 68km
Updated: 04/20/2019 3:53pm
Few Clouds
Few Clouds
 Wind from SSW
Wind: SSW 16 mph , 26 km/h, Gust: 24 mph , 39 km/h
Temperature: 72°F , 22°C
Dew Point: 36°F , 2°C
Humidity: 27%
Barometer: 29.72 inHg , 1006.4 hPa
Clouds: Few Clouds
Visibility: 10 miles , 16 km
Cloud details: Few Clouds 10000 ft
2019/04/20 20:53 KHYR 202053Z AUTO 21014G21KT 10SM FEW100 22/02 A2972 RMK AO2 SLP067 T02220022 56020
 
KARV - Minocqua/Woodruf, Wisconsin, USA
Distance from station: E 44mi, 71km
Updated: 04/20/2019 3:55pm
Clear
Clear
 Wind from S
Wind: S 13 mph , 20 km/h
Temperature: 66°F , 19°C
Dew Point: 27°F , -3°C
Humidity: 22%
Barometer: 29.75 inHg , 1007.5 hPa
Clouds: Clear
Visibility: 10 miles , 16 km
2019/04/20 20:55 KARV 202055Z AUTO 19011KT 10SM CLR 19/M03 A2975 RMK AO2 T01921029
KTKV - Tomahawk Regnl, Wisconsin, USA
Distance from station: ESE 46mi, 74km
Updated: 04/20/2019 3:55pm
Clear
Clear
 Wind from calm
Wind: Calm
Temperature: 66°F , 19°C
Dew Point: 30°F , -1°C
Humidity: 26%
Barometer: 29.78 inHg , 1008.5 hPa
Clouds: Clear
Visibility: 10 miles , 16 km
2019/04/20 20:55 KTKV 202055Z AUTO 00000KT 10SM CLR 19/M01 A2978 RMK AO2 T01861014